Terminal Aerodrome Forecast
Issued by NWS

Home | Current Version | Previous Version | Text Only | Print | Product List | Glossary On
Versions: 1 2 3 4 5 6 7 8 9 10 11 12 13 14 15 16 17 18 19 20 21 22 23 24 25 26
566
FTUS43 KMQT 181821 AAA
TAFCMX
TAF AMD
KCMX 181821Z 1818/1918 26012G20KT 4SM -FZDZSN OVC008
     FM182100 27011G19KT 3SM -FZDZ OVC008
     FM182200 27010KT 3SM -FZDZ OVC010
     FM190000 26005KT 4SM -FZDZ BKN010
     FM190600 23004KT P6SM BKN015
     FM191000 22004KT P6SM BKN030
     FM191400 21007KT P6SM BKN100=

USA.gov is the U.S. government's official web portal to all federal, state and local government web resources and services.